createdAt,value
2022-10-05T00:00:00.143Z,7.70
2022-10-05T00:05:19.717Z,7.69
2022-10-05T00:10:22.982Z,7.72
2022-10-05T00:15:25.730Z,7.69
2022-10-05T00:20:28.670Z,7.69
2022-10-05T00:25:31.399Z,7.71
2022-10-05T00:30:34.272Z,7.71
2022-10-05T00:35:36.993Z,7.74
2022-10-05T00:40:48.670Z,7.78
2022-10-05T00:46:00.346Z,7.77
2022-10-05T00:51:29.096Z,7.74
2022-10-05T00:56:47.601Z,7.75
2022-10-05T01:02:12.035Z,7.74
2022-10-05T01:07:37.357Z,7.67
2022-10-05T01:12:48.734Z,7.69
2022-10-05T01:18:10.374Z,7.75
2022-10-05T01:23:57.957Z,7.84
2022-10-05T01:29:24.200Z,7.96
2022-10-05T01:34:54.381Z,8.03
2022-10-05T01:40:09.309Z,8.06
2022-10-05T01:45:24.932Z,8.10
2022-10-05T01:51:00.936Z,8.10
2022-10-05T01:56:19.507Z,8.11
2022-10-05T02:01:24.983Z,8.19
2022-10-05T02:06:33.098Z,8.31
2022-10-05T02:11:39.280Z,8.36
2022-10-05T02:16:44.485Z,8.40
2022-10-05T02:22:04.364Z,8.46
2022-10-05T02:27:10.807Z,8.49
2022-10-05T02:32:20.051Z,8.50
2022-10-05T02:37:29.257Z,8.58
2022-10-05T02:42:55.152Z,8.60
2022-10-05T02:48:10.975Z,8.55
2022-10-05T02:53:14.877Z,8.50
2022-10-05T02:58:24.824Z,8.47
2022-10-05T03:03:54.692Z,8.46
2022-10-05T03:09:04.340Z,8.48
2022-10-05T03:14:13.184Z,8.47
2022-10-05T03:19:49.364Z,8.49
2022-10-05T03:25:21.701Z,8.53
2022-10-05T03:30:26.737Z,8.56
2022-10-05T03:35:48.128Z,8.56
2022-10-05T03:40:56.073Z,8.57
2022-10-05T03:46:08.429Z,8.56
2022-10-05T03:51:35.013Z,8.57
2022-10-05T03:56:44.455Z,8.61
2022-10-05T04:02:05.546Z,8.64
2022-10-05T04:07:32.963Z,8.69
2022-10-05T04:12:41.462Z,8.73
2022-10-05T04:17:49.028Z,8.75
2022-10-05T04:23:10.099Z,8.75
2022-10-05T04:28:29.658Z,8.78
2022-10-05T04:33:34.953Z,8.79
2022-10-05T04:38:59.258Z,8.79
2022-10-05T04:44:35.995Z,8.80
2022-10-05T04:50:00.369Z,8.80
2022-10-05T04:55:22.635Z,8.81
2022-10-05T05:00:31.613Z,8.85
2022-10-05T05:06:16.399Z,8.91
2022-10-05T05:11:35.996Z,8.96
2022-10-05T05:16:42.280Z,9.02
2022-10-05T05:22:00.305Z,9.09
2022-10-05T05:27:24.782Z,9.16
2022-10-05T05:32:33.571Z,9.25
2022-10-05T05:37:58.496Z,9.36
2022-10-05T05:43:14.404Z,9.44
2022-10-05T05:48:29.217Z,9.55
2022-10-05T05:53:34.406Z,9.69
2022-10-05T05:58:52.404Z,9.84
2022-10-05T06:03:57.543Z,9.98
2022-10-05T06:09:06.821Z,10.10
2022-10-05T06:14:17.371Z,10.21
2022-10-05T06:19:23.972Z,10.26
2022-10-05T06:24:40.112Z,10.36
2022-10-05T06:30:05.857Z,10.49
2022-10-05T06:35:08.582Z,10.55
2022-10-05T06:40:31.464Z,10.61
2022-10-05T06:45:55.829Z,10.73
2022-10-05T06:51:12.415Z,10.91
2022-10-05T06:56:31.589Z,11.07
2022-10-05T07:01:45.495Z,11.24
2022-10-05T07:07:14.953Z,11.56
2022-10-05T07:12:30.173Z,11.86
2022-10-05T07:17:52.499Z,12.10
2022-10-05T07:23:03.297Z,12.31
2022-10-05T07:28:13.614Z,12.47
2022-10-05T07:33:34.792Z,12.52
2022-10-05T07:38:59.445Z,12.55
2022-10-05T07:44:22.959Z,12.61
2022-10-05T07:49:25.852Z,12.64
2022-10-05T07:54:52.147Z,12.74
2022-10-05T08:00:11.498Z,12.87
2022-10-05T08:05:28.908Z,13.02
2022-10-05T08:10:44.180Z,13.11
2022-10-05T08:15:53.820Z,13.11
2022-10-05T08:20:58.740Z,13.04
2022-10-05T08:26:22.857Z,12.96
2022-10-05T08:31:32.602Z,13.05
2022-10-05T08:37:09.104Z,13.39
2022-10-05T08:42:36.858Z,13.78
2022-10-05T08:48:15.829Z,13.73
2022-10-05T08:53:45.425Z,13.50
2022-10-05T08:59:28.118Z,13.36
2022-10-05T09:04:35.937Z,13.28
2022-10-05T09:10:28.625Z,13.28
2022-10-05T09:16:01.241Z,13.42
2022-10-05T09:21:44.894Z,13.51
2022-10-05T09:27:10.348Z,13.58
2022-10-05T09:32:46.298Z,13.68
2022-10-05T09:38:17.089Z,13.96
2022-10-05T09:43:42.692Z,14.19
2022-10-05T09:48:48.275Z,14.39
2022-10-05T09:54:22.741Z,14.54
2022-10-05T09:59:53.698Z,14.72
2022-10-05T10:05:05.905Z,14.82
2022-10-05T10:10:40.567Z,14.89
2022-10-05T10:16:14.793Z,14.94
2022-10-05T10:21:42.200Z,15.23
2022-10-05T10:27:26.567Z,15.47
2022-10-05T10:33:13.700Z,15.61
2022-10-05T10:38:44.017Z,15.73
2022-10-05T10:44:15.130Z,15.88
2022-10-05T10:49:48.236Z,16.17
2022-10-05T10:55:46.995Z,16.26
2022-10-05T11:00:57.812Z,16.19
2022-10-05T11:06:43.944Z,16.27
2022-10-05T11:12:14.027Z,16.49
2022-10-05T11:17:35.141Z,16.62
2022-10-05T11:22:54.983Z,16.64
2022-10-05T11:28:45.824Z,16.69
2022-10-05T11:34:06.942Z,16.68
2022-10-05T11:39:44.393Z,16.77
2022-10-05T11:44:55.949Z,16.82
2022-10-05T11:50:20.578Z,16.80
2022-10-05T11:55:45.720Z,17.01
2022-10-05T12:01:19.870Z,16.97
2022-10-05T12:07:00.697Z,16.92
2022-10-05T12:12:18.752Z,16.87
2022-10-05T12:17:24.498Z,16.74
2022-10-05T12:22:27.472Z,16.64
2022-10-05T12:27:38.581Z,16.61
2022-10-05T12:33:02.348Z,16.64
2022-10-05T12:38:25.585Z,16.76
2022-10-05T12:43:54.307Z,17.00
2022-10-05T12:49:27.927Z,17.22
2022-10-05T12:54:30.612Z,17.24
2022-10-05T12:59:39.652Z,17.20
2022-10-05T13:05:10.345Z,17.06
2022-10-05T13:10:36.315Z,16.98
2022-10-05T13:16:17.114Z,17.01
2022-10-05T13:21:38.720Z,17.08
2022-10-05T13:26:50.249Z,17.02
2022-10-05T13:32:12.753Z,16.96
2022-10-05T13:37:25.045Z,16.85
2022-10-05T13:42:59.459Z,16.77
2022-10-05T13:48:29.591Z,16.63
2022-10-05T13:54:02.278Z,16.47
2022-10-05T13:59:16.197Z,16.27
2022-10-05T14:04:27.312Z,16.15
2022-10-05T14:09:33.942Z,16.12
2022-10-05T14:14:54.425Z,16.04
2022-10-05T14:20:00.309Z,15.90
2022-10-05T14:25:03.007Z,15.75
2022-10-05T14:30:08.392Z,15.65
2022-10-05T14:35:12.883Z,15.63
2022-10-05T14:40:31.638Z,15.80
2022-10-05T14:45:35.589Z,16.01
2022-10-05T14:51:03.310Z,16.01
2022-10-05T14:56:27.308Z,15.89
2022-10-05T15:01:32.439Z,15.71
2022-10-05T15:06:39.966Z,15.50
2022-10-05T15:11:53.517Z,15.27
2022-10-05T15:17:11.488Z,15.08
2022-10-05T15:22:33.780Z,14.93
2022-10-05T15:27:39.550Z,14.79
2022-10-05T15:32:57.464Z,14.63
2022-10-05T15:38:19.533Z,14.46
2022-10-05T15:43:23.498Z,14.25
2022-10-05T15:48:54.537Z,14.08
2022-10-05T15:54:36.610Z,13.91
2022-10-05T15:59:58.595Z,13.66
2022-10-05T16:05:20.993Z,13.34
2022-10-05T16:10:25.862Z,13.00
2022-10-05T16:15:41.421Z,12.76
2022-10-05T16:20:50.570Z,12.58
2022-10-05T16:26:09.260Z,12.38
2022-10-05T16:31:31.205Z,12.16
2022-10-05T16:36:46.142Z,11.95
2022-10-05T16:42:21.349Z,11.78
2022-10-05T16:47:46.590Z,11.61
2022-10-05T16:52:56.849Z,11.45
2022-10-05T16:58:04.056Z,11.33
2022-10-05T17:03:35.486Z,11.25
2022-10-05T17:08:51.683Z,11.13
2022-10-05T17:14:25.422Z,11.09
2022-10-05T17:19:28.059Z,11.02
2022-10-05T17:24:31.963Z,10.94
2022-10-05T17:29:51.963Z,10.84
2022-10-05T17:35:04.836Z,10.73
2022-10-05T17:40:32.185Z,10.59
2022-10-05T17:45:34.851Z,10.40
2022-10-05T17:51:07.114Z,10.27
2022-10-05T17:56:10.595Z,10.17
2022-10-05T18:01:33.993Z,10.08
2022-10-05T18:06:44.871Z,10.02
2022-10-05T18:12:08.357Z,9.97
2022-10-05T18:17:12.956Z,9.92
2022-10-05T18:22:15.780Z,9.91
2022-10-05T18:27:41.412Z,9.93
2022-10-05T18:32:46.832Z,9.90
2022-10-05T18:38:10.281Z,9.82
2022-10-05T18:43:41.329Z,9.78
2022-10-05T18:48:56.416Z,9.70
2022-10-05T18:53:59.033Z,9.60
2022-10-05T18:59:43.288Z,9.54
2022-10-05T19:05:23.624Z,9.48
2022-10-05T19:10:37.135Z,9.40
2022-10-05T19:15:54.224Z,9.36
2022-10-05T19:21:12.519Z,9.30
2022-10-05T19:26:29.251Z,9.21
2022-10-05T19:31:48.248Z,9.13
2022-10-05T19:36:54.706Z,9.07
2022-10-05T19:42:04.422Z,8.98
2022-10-05T19:47:22.584Z,8.94
2022-10-05T19:52:40.830Z,8.87
2022-10-05T19:57:51.857Z,8.77
2022-10-05T20:03:27.365Z,8.70
2022-10-05T20:08:43.819Z,8.62
2022-10-05T20:13:52.667Z,8.59
2022-10-05T20:19:13.977Z,8.57
2022-10-05T20:24:25.849Z,8.59
2022-10-05T20:29:30.347Z,8.71
2022-10-05T20:34:35.047Z,8.99
2022-10-05T20:39:38.815Z,9.36
2022-10-05T20:44:41.803Z,9.73
2022-10-05T20:49:44.939Z,10.07
2022-10-05T20:54:48.245Z,10.31
2022-10-05T20:59:51.557Z,10.50
2022-10-05T21:04:54.370Z,10.60
2022-10-05T21:09:57.234Z,10.67
2022-10-05T21:15:00.452Z,10.72
2022-10-05T21:20:03.454Z,10.76
2022-10-05T21:25:09.107Z,10.81
2022-10-05T21:30:12.602Z,10.88
2022-10-05T21:35:15.443Z,10.92
2022-10-05T21:40:18.229Z,10.92
2022-10-05T21:45:21.041Z,10.93
2022-10-05T21:50:25.599Z,10.92
2022-10-05T21:55:28.729Z,10.92
2022-10-05T22:00:31.783Z,10.92
2022-10-05T22:05:34.985Z,10.93
2022-10-05T22:10:38.022Z,10.90
2022-10-05T22:15:40.701Z,10.89
2022-10-05T22:20:45.534Z,10.88
2022-10-05T22:25:48.415Z,10.86
2022-10-05T22:30:51.104Z,10.85
2022-10-05T22:35:54.584Z,10.83
2022-10-05T22:40:57.591Z,10.83
2022-10-05T22:46:01.234Z,10.83
2022-10-05T22:51:04.645Z,10.79
2022-10-05T22:56:10.016Z,10.79
2022-10-05T23:01:16.928Z,10.77
2022-10-05T23:06:20.837Z,10.76
2022-10-05T23:11:28.241Z,10.74
2022-10-05T23:16:30.978Z,10.73
2022-10-05T23:21:33.849Z,10.68
2022-10-05T23:26:37.027Z,10.61
2022-10-05T23:31:39.734Z,10.58
2022-10-05T23:36:42.432Z,10.54
2022-10-05T23:41:45.130Z,10.52
2022-10-05T23:46:47.896Z,10.49
2022-10-05T23:51:50.634Z,10.48
2022-10-05T23:56:53.318Z,10.47
